Time;durP1;ratioP1;P1;durP2;ratioP2;P2;SDS_P1;SDS_P2;PMS_P1;PMS_P2;Temp;Humidity;BMP_temperature;BMP_pressure;BME280_temperature;BME280_humidity;BME280_pressure;Samples;Min_cycle;Max_cycle;Signal;HPM_P1;HPM_P2
2022/05/15 00:02:14;;;;;;;7.00;4.07;;;;;;;12.82;72.17;100392.56;5060287;28;20255;-61
2022/05/15 00:04:39;;;;;;;7.60;4.60;;;;;;;12.76;72.45;100395.50;5055157;28;20259;-60
2022/05/15 00:07:06;;;;;;;7.07;4.80;;;;;;;12.86;72.11;100388.88;5054306;28;20335;-61
2022/05/15 00:09:31;;;;;;;9.50;4.53;;;;;;;12.74;72.29;100390.44;5053310;28;20174;-60
2022/05/15 00:11:56;;;;;;;6.23;4.73;;;;;;;12.68;73.10;100388.22;5059120;28;20231;-60
2022/05/15 00:14:22;;;;;;;5.73;4.10;;;;;;;12.75;73.01;100392.09;5055208;28;20290;-60
2022/05/15 00:16:47;;;;;;;8.37;4.60;;;;;;;12.73;72.88;100387.94;5054265;28;20263;-60
2022/05/15 00:19:13;;;;;;;10.43;5.13;;;;;;;12.67;73.55;100383.16;5054785;28;20173;-60
2022/05/15 00:21:38;;;;;;;9.97;4.60;;;;;;;12.73;73.76;100375.03;5042680;28;20675;-60
2022/05/15 00:24:05;;;;;;;8.17;4.93;;;;;;;12.66;73.89;100377.13;5054367;28;20187;-61
2022/05/15 00:26:32;;;;;;;9.20;4.63;;;;;;;12.72;73.40;100373.38;5052586;28;20181;-61
2022/05/15 00:28:58;;;;;;;6.33;4.13;;;;;;;12.67;73.97;100370.25;5054477;28;20197;-60
2022/05/15 00:31:24;;;;;;;8.03;5.13;;;;;;;12.53;74.79;100371.88;5054975;28;20607;-61
2022/05/15 00:33:50;;;;;;;10.97;5.00;;;;;;;12.49;74.65;100375.56;5059212;28;20632;-59
2022/05/15 00:36:15;;;;;;;7.67;5.03;;;;;;;12.49;75.18;100373.00;5052379;28;20184;-60
2022/05/15 00:38:41;;;;;;;7.50;4.43;;;;;;;12.42;76.07;100372.50;5054356;28;20189;-59
2022/05/15 00:41:07;;;;;;;10.77;5.27;;;;;;;12.37;76.07;100377.09;5052258;28;20239;-60
2022/05/15 00:43:48;;;;;;;8.17;5.27;;;;;;;12.29;76.24;100365.56;5061344;28;20178;-60
2022/05/15 00:46:26;;;;;;;8.43;5.13;;;;;;;12.20;76.90;100369.50;5053882;28;20267;-61
2022/05/15 00:48:52;;;;;;;7.83;5.27;;;;;;;12.27;77.15;100363.06;5055205;28;20273;-61
2022/05/15 00:51:29;;;;;;;7.80;5.57;;;;;;;12.18;76.93;100366.16;5054695;28;20307;-62
2022/05/15 00:54:07;;;;;;;9.50;5.87;;;;;;;12.09;77.74;100365.78;5062211;28;20565;-61
2022/05/15 00:56:37;;;;;;;8.87;5.73;;;;;;;12.10;77.89;100370.00;5053558;28;20704;-60
2022/05/15 00:59:10;;;;;;;12.73;6.03;;;;;;;12.08;78.29;100371.88;5052891;28;20169;-60
2022/05/15 01:01:36;;;;;;;12.50;6.20;;;;;;;12.20;77.54;100366.91;5042102;28;20225;-60
2022/05/15 01:04:03;;;;;;;8.20;4.77;;;;;;;12.06;77.63;100368.53;5053491;28;20178;-59
2022/05/15 01:06:30;;;;;;;10.57;5.27;;;;;;;12.11;78.17;100365.69;5053489;28;20198;-60
2022/05/15 01:08:55;;;;;;;7.23;4.70;;;;;;;12.11;78.30;100365.69;5052355;28;20315;-60
2022/05/15 01:11:22;;;;;;;11.37;4.77;;;;;;;12.02;78.31;100374.78;5053879;28;20302;-59
2022/05/15 01:13:51;;;;;;;8.67;4.63;;;;;;;12.07;78.51;100372.78;5058792;28;20314;-62
2022/05/15 01:16:21;;;;;;;12.07;4.43;;;;;;;12.01;78.91;100367.97;5051837;28;20280;-61
2022/05/15 01:18:47;;;;;;;9.27;4.97;;;;;;;12.03;78.93;100370.44;5052388;28;20194;-60
2022/05/15 01:21:23;;;;;;;11.90;5.57;;;;;;;11.97;78.80;100363.06;5045280;28;20595;-60
2022/05/15 01:23:49;;;;;;;6.93;5.13;;;;;;;11.94;79.50;100362.31;5052073;28;20193;-61
2022/05/15 01:26:15;;;;;;;11.17;4.90;;;;;;;12.06;79.19;100368.53;5053039;28;20177;-60
2022/05/15 01:28:42;;;;;;;9.30;5.03;;;;;;;12.02;79.63;100368.78;5052077;28;20201;-60
2022/05/15 01:31:07;;;;;;;6.87;4.63;;;;;;;12.00;79.93;100370.63;5052608;28;20316;-60
2022/05/15 01:33:33;;;;;;;8.40;4.87;;;;;;;11.93;80.76;100363.22;5067975;28;20661;-60
2022/05/15 01:35:58;;;;;;;8.20;4.73;;;;;;;11.92;80.76;100364.13;5053214;28;20182;-62
2022/05/15 01:38:23;;;;;;;9.77;5.30;;;;;;;12.00;80.44;100366.28;5053321;28;20174;-63
2022/05/15 01:40:50;;;;;;;10.33;5.07;;;;;;;12.05;80.02;100360.88;5049103;28;20225;-61
2022/05/15 01:43:16;;;;;;;7.50;4.60;;;;;;;11.95;80.95;100371.66;5051760;28;20177;-60
2022/05/15 01:45:41;;;;;;;9.70;5.50;;;;;;;11.93;81.83;100370.09;5052745;28;20186;-59
2022/05/15 01:48:09;;;;;;;7.33;4.67;;;;;;;11.94;81.82;100369.19;5052707;28;20202;-60
2022/05/15 01:50:34;;;;;;;6.73;4.73;;;;;;;11.94;81.56;100380.34;5044769;28;20321;-60
2022/05/15 01:53:00;;;;;;;6.80;4.77;;;;;;;11.81;82.64;100371.63;5076273;28;20261;-60
2022/05/15 01:55:25;;;;;;;9.47;5.50;;;;;;;11.81;82.84;100375.94;5052946;28;20179;-61
2022/05/15 01:57:50;;;;;;;5.63;4.50;;;;;;;11.73;83.22;100379.78;5052331;28;20165;-60
2022/05/15 02:00:20;;;;;;;8.73;4.87;;;;;;;11.74;83.63;100380.59;5044033;28;20178;-60
2022/05/15 02:02:47;;;;;;;10.00;4.57;;;;;;;11.74;84.15;100372.88;5050830;28;20721;-60
2022/05/15 02:05:13;;;;;;;7.87;4.97;;;;;;;11.72;84.33;100369.53;5051504;28;20182;-60
2022/05/15 02:07:38;;;;;;;7.50;4.47;;;;;;;11.71;84.27;100375.59;5050642;28;20189;-61
2022/05/15 02:10:05;;;;;;;7.33;5.10;;;;;;;11.77;84.05;100378.69;5042196;28;20651;-60
2022/05/15 02:12:30;;;;;;;7.40;4.57;;;;;;;11.70;84.65;100374.78;5067539;28;20310;-63
2022/05/15 02:14:56;;;;;;;6.97;4.53;;;;;;;11.62;85.77;100372.63;5052391;28;20204;-60
2022/05/15 02:17:21;;;;;;;6.17;4.33;;;;;;;11.56;85.66;100364.41;5052027;28;20220;-60
2022/05/15 02:19:46;;;;;;;9.63;4.83;;;;;;;11.60;85.89;100366.72;5052271;28;20268;-60
2022/05/15 02:22:12;;;;;;;6.43;4.80;;;;;;;11.59;86.15;100364.25;5057877;28;20235;-61
2022/05/15 02:24:38;;;;;;;10.33;5.07;;;;;;;11.49;86.53;100365.66;5052461;28;20179;-60
2022/05/15 02:27:04;;;;;;;4.87;4.40;;;;;;;11.41;87.21;100351.44;5050385;28;20178;-63
2022/05/15 02:29:29;;;;;;;6.43;4.87;;;;;;;11.44;87.12;100356.41;5052035;28;20169;-61
2022/05/15 02:31:54;;;;;;;8.07;5.00;;;;;;;11.34;88.55;100362.13;5056426;28;20263;-60
2022/05/15 02:34:19;;;;;;;7.93;4.23;;;;;;;11.33;88.90;100356.19;5053468;28;20170;-60
2022/05/15 02:36:45;;;;;;;7.97;4.53;;;;;;;11.32;89.03;100357.09;5051614;28;20188;-60
2022/05/15 02:39:10;;;;;;;7.00;4.60;;;;;;;11.29;88.80;100362.41;5052088;28;20222;-60
2022/05/15 02:41:35;;;;;;;8.47;5.10;;;;;;;11.25;89.07;100358.31;5053804;28;20772;-61
2022/05/15 02:44:00;;;;;;;6.70;4.67;;;;;;;11.24;89.45;100361.84;5049954;28;20206;-60
2022/05/15 02:46:26;;;;;;;8.73;5.40;;;;;;;11.28;88.96;100356.41;5028825;28;20530;-61
2022/05/15 02:51:35;;;;;;;10.17;4.77;;;;;;;11.09;90.13;100358.31;5027011;28;20236;-60
2022/05/15 02:54:01;;;;;;;11.20;5.10;;;;;;;11.04;90.45;100360.28;5035335;28;20182;-60
2022/05/15 02:56:32;;;;;;;6.00;5.30;;;;;;;10.94;91.10;100354.78;5031269;28;20190;-61
2022/05/15 02:58:58;;;;;;;8.70;4.37;;;;;;;10.97;91.24;100354.63;5047339;28;20178;-60
2022/05/15 03:01:24;;;;;;;20.07;6.50;;;;;;;10.99;91.08;100357.97;5040979;28;20251;-61
2022/05/15 03:03:50;;;;;;;5.77;4.70;;;;;;;11.05;91.02;100356.81;5052145;28;20720;-60
2022/05/15 03:06:18;;;;;;;8.17;5.13;;;;;;;10.95;91.48;100357.28;5031313;28;20514;-60
2022/05/15 03:08:47;;;;;;;10.53;5.27;;;;;;;10.89;91.99;100364.47;5046894;28;20255;-61
2022/05/15 03:11:13;;;;;;;5.70;4.47;;;;;;;10.84;92.21;100369.91;5049666;28;20224;-60
2022/05/15 03:13:40;;;;;;;6.37;5.63;;;;;;;10.80;91.90;100368.38;5045838;28;20355;-61
2022/05/15 03:16:07;;;;;;;12.13;5.97;;;;;;;10.78;92.30;100365.88;5038959;28;20242;-60
2022/05/15 03:18:38;;;;;;;7.90;5.03;;;;;;;10.71;92.54;100368.84;5042386;28;20685;-59
2022/05/15 03:21:04;;;;;;;7.37;5.40;;;;;;;10.67;93.18;100368.16;5043188;28;20244;-60
2022/05/15 03:23:29;;;;;;;10.10;5.90;;;;;;;10.68;93.67;100361.28;5057774;28;20185;-62
2022/05/15 03:25:54;;;;;;;7.27;5.33;;;;;;;10.70;93.16;100354.31;5051330;28;20177;-60
2022/05/15 03:28:20;;;;;;;9.60;5.93;;;;;;;10.66;93.24;100353.63;5050969;28;20208;-60
2022/05/15 03:30:45;;;;;;;8.17;5.77;;;;;;;10.73;93.56;100356.72;5019774;28;20287;-59
2022/05/15 03:33:12;;;;;;;8.70;6.03;;;;;;;10.75;92.93;100362.63;5050357;28;20177;-59
2022/05/15 03:35:38;;;;;;;9.57;5.97;;;;;;;10.84;92.38;100361.31;5049573;28;20173;-59
2022/05/15 03:38:06;;;;;;;12.40;5.87;;;;;;;10.74;92.90;100364.38;5049349;28;20295;-61
2022/05/15 03:40:31;;;;;;;7.80;5.57;;;;;;;10.71;93.53;100361.94;5042843;28;20251;-60
2022/05/15 03:42:57;;;;;;;12.67;5.93;;;;;;;10.67;93.73;100368.16;5063080;28;20216;-60
2022/05/15 03:45:22;;;;;;;11.30;6.83;;;;;;;10.69;94.87;100368.91;5044335;28;20567;-60
2022/05/15 03:47:53;;;;;;;7.67;5.47;;;;;;;10.71;94.48;100361.94;5045450;28;20197;-59
2022/05/15 03:50:22;;;;;;;9.20;6.27;;;;;;;10.71;94.16;100374.00;5060794;28;20177;-60
2022/05/15 03:52:47;;;;;;;7.90;5.93;;;;;;;10.74;94.50;100368.69;5077868;28;20177;-60
2022/05/15 03:55:13;;;;;;;9.90;5.73;;;;;;;10.76;94.24;100370.25;5051178;28;20178;-60
2022/05/15 03:57:39;;;;;;;7.50;5.63;;;;;;;10.83;94.43;100363.06;5065916;28;20203;-60
2022/05/15 04:00:07;;;;;;;9.80;6.50;;;;;;;10.85;93.66;100363.81;5041331;28;20185;-61
2022/05/15 04:02:32;;;;;;;6.43;5.83;;;;;;;10.94;93.98;100375.38;5081812;28;20181;-60
2022/05/15 04:04:58;;;;;;;9.23;6.07;;;;;;;10.93;93.62;100364.25;5051035;28;20339;-60
2022/05/15 04:07:23;;;;;;;6.93;5.87;;;;;;;11.03;93.24;100363.78;5050300;28;20262;-60
2022/05/15 04:09:49;;;;;;;7.67;6.10;;;;;;;11.07;93.35;100360.13;5050942;28;20546;-62
2022/05/15 04:12:15;;;;;;;7.17;5.27;;;;;;;11.09;92.76;100366.88;5074610;28;20236;-60
2022/05/15 04:14:41;;;;;;;7.60;5.50;;;;;;;11.18;92.92;100369.88;5051236;28;20201;-60
2022/05/15 04:17:07;;;;;;;7.60;6.10;;;;;;;11.20;92.72;100365.47;5048746;28;20229;-60
2022/05/15 04:19:37;;;;;;;9.37;5.97;;;;;;;11.34;91.97;100368.16;5049050;28;20542;-63
2022/05/15 04:22:04;;;;;;;10.33;5.73;;;;;;;11.42;91.97;100360.84;5055796;28;20227;-60
2022/05/15 04:24:31;;;;;;;6.83;5.40;;;;;;;11.55;90.67;100367.91;5066314;28;20205;-60
2022/05/15 04:26:57;;;;;;;7.67;5.57;;;;;;;11.66;89.94;100369.88;5049106;28;20551;-61
2022/05/15 04:29:22;;;;;;;9.57;5.60;;;;;;;11.86;89.22;100372.19;5050817;28;20174;-60
2022/05/15 04:31:47;;;;;;;6.60;5.17;;;;;;;11.98;87.88;100367.31;5054198;28;20678;-61
2022/05/15 04:34:13;;;;;;;7.50;5.53;;;;;;;12.04;87.70;100367.78;5054693;28;20173;-61
2022/05/15 04:36:38;;;;;;;8.50;4.93;;;;;;;12.05;86.81;100364.28;5054307;28;20276;-60
2022/05/15 04:39:05;;;;;;;9.00;5.23;;;;;;;12.07;87.22;100370.19;5054632;28;20180;-62
2022/05/15 04:41:31;;;;;;;6.93;5.27;;;;;;;12.21;86.61;100363.44;5041643;28;20229;-61
2022/05/15 04:43:57;;;;;;;10.60;5.10;;;;;;;12.22;86.28;100365.09;5040028;28;20218;-61
2022/05/15 04:46:25;;;;;;;5.90;4.37;;;;;;;12.32;86.15;100365.41;5049226;28;20557;-60
2022/05/15 04:48:51;;;;;;;7.37;4.90;;;;;;;12.39;86.11;100370.09;5049382;28;20213;-61
2022/05/15 04:51:16;;;;;;;6.40;4.80;;;;;;;12.53;84.81;100373.66;5044039;28;20244;-60
2022/05/15 04:53:41;;;;;;;8.43;5.40;;;;;;;12.62;84.16;100372.28;5039167;28;20598;-60
2022/05/15 04:56:07;;;;;;;9.93;4.67;;;;;;;12.67;83.41;100371.06;5033668;28;20198;-61
2022/05/15 04:58:32;;;;;;;8.77;4.80;;;;;;;12.73;83.26;100368.13;5034200;28;20641;-61
2022/05/15 05:00:57;;;;;;;6.60;4.70;;;;;;;12.79;82.68;100368.66;5038749;28;20231;-60
2022/05/15 05:03:22;;;;;;;6.50;4.67;;;;;;;12.87;82.59;100374.22;5051224;28;20751;-61
2022/05/15 05:05:48;;;;;;;5.20;4.67;;;;;;;12.99;81.54;100376.06;5033689;28;20269;-61
2022/05/15 05:08:13;;;;;;;7.80;4.57;;;;;;;13.03;80.86;100369.78;5033551;28;20215;-60
2022/05/15 05:10:40;;;;;;;7.00;4.70;;;;;;;13.05;80.95;100380.03;5033758;28;20262;-63
2022/05/15 05:13:06;;;;;;;5.73;5.07;;;;;;;13.04;81.12;100379.19;5060042;28;20211;-61
2022/05/15 05:15:31;;;;;;;5.97;4.70;;;;;;;13.07;80.46;100375.59;5051902;28;20201;-60
2022/05/15 05:17:57;;;;;;;5.80;4.30;;;;;;;13.38;79.93;100386.66;5051330;28;20178;-61
2022/05/15 05:20:23;;;;;;;7.80;4.30;;;;;;;13.56;78.09;100387.28;5044729;28;20226;-61
2022/05/15 05:22:49;;;;;;;5.03;4.17;;;;;;;13.64;77.66;100381.63;5066364;28;20329;-62
2022/05/15 05:25:14;;;;;;;6.87;4.90;;;;;;;13.79;76.44;100380.69;5053574;28;20668;-61
2022/05/15 05:27:41;;;;;;;6.10;4.57;;;;;;;13.93;75.35;100384.97;5052657;28;20264;-61
2022/05/15 05:30:10;;;;;;;7.90;4.33;;;;;;;14.10;74.34;100386.44;5042468;28;20219;-61
2022/05/15 05:32:35;;;;;;;11.23;5.20;;;;;;;14.15;72.64;100397.34;5067816;28;20212;-60
2022/05/15 05:35:01;;;;;;;8.83;5.00;;;;;;;14.42;72.48;100399.03;5053379;28;20197;-61
2022/05/15 05:37:26;;;;;;;6.80;4.63;;;;;;;14.53;72.18;100399.16;5051241;28;20628;-68
2022/05/15 05:39:51;;;;;;;6.53;4.37;;;;;;;14.79;71.25;100403.56;5050546;28;20617;-60
2022/05/15 05:42:17;;;;;;;5.13;4.10;;;;;;;14.89;68.90;100391.63;5066505;28;20228;-61
2022/05/15 05:44:42;;;;;;;8.13;4.47;;;;;;;15.14;68.40;100403.75;5052785;28;20268;-61
2022/05/15 05:47:07;;;;;;;8.00;5.10;;;;;;;15.29;66.99;100396.69;5052351;28;20186;-61
2022/05/15 05:49:33;;;;;;;8.63;4.53;;;;;;;15.43;66.83;100397.47;5053018;28;20268;-60
2022/05/15 05:51:58;;;;;;;8.60;3.70;;;;;;;15.57;66.21;100399.91;5073858;28;20240;-60
2022/05/15 05:54:23;;;;;;;6.50;3.87;;;;;;;15.62;65.30;100405.59;5054186;28;20177;-61
2022/05/15 05:56:48;;;;;;;5.50;3.83;;;;;;;15.58;65.12;100401.56;5052835;28;20596;-61
2022/05/15 05:59:14;;;;;;;6.10;3.50;;;;;;;15.60;65.05;100398.88;5053021;28;20230;-62
2022/05/15 06:01:39;;;;;;;5.07;3.10;;;;;;;15.57;63.85;100405.09;5068843;28;20721;-61
2022/05/15 06:06:48;;;;;;;8.00;3.30;;;;;;;15.75;63.79;100402.97;5052537;28;20261;-61
2022/05/15 06:09:13;;;;;;;8.87;3.57;;;;;;;15.75;62.92;100409.91;5052785;28;20656;-61
2022/05/15 06:11:39;;;;;;;8.07;3.50;;;;;;;15.72;62.79;100400.59;5068182;28;20698;-63
2022/05/15 06:14:04;;;;;;;10.40;3.80;;;;;;;15.89;62.76;100411.53;5058649;28;20193;-61
2022/05/15 06:16:32;;;;;;;7.77;3.50;;;;;;;16.07;61.36;100410.22;5051792;28;20221;-60
2022/05/15 06:18:58;;;;;;;6.50;3.20;;;;;;;15.99;61.82;100417.75;5052477;28;20196;-61
2022/05/15 06:21:24;;;;;;;7.90;3.13;;;;;;;16.14;60.80;100414.00;5040575;28;20243;-61
2022/05/15 06:23:49;;;;;;;5.93;3.17;;;;;;;16.23;60.36;100409.91;5051874;28;20169;-61
2022/05/15 06:26:14;;;;;;;7.43;3.10;;;;;;;16.59;59.29;100409.91;5052044;28;20186;-61
2022/05/15 06:28:39;;;;;;;5.80;2.97;;;;;;;17.37;56.88;100405.69;5052290;28;20197;-60
2022/05/15 06:31:06;;;;;;;5.33;3.00;;;;;;;18.00;53.18;100402.50;5049984;28;20232;-60
2022/05/15 06:33:31;;;;;;;4.97;3.10;;;;;;;17.78;53.18;100400.78;5067571;28;20169;-60
2022/05/15 06:35:58;;;;;;;6.57;3.20;;;;;;;18.26;51.05;100398.72;5051879;28;20184;-64
2022/05/15 06:38:23;;;;;;;7.97;3.17;;;;;;;18.82;49.46;100402.75;5045506;28;20526;-60
2022/05/15 06:40:48;;;;;;;7.23;4.30;;;;;;;19.03;48.61;100394.91;5037722;28;20322;-60
2022/05/15 06:43:14;;;;;;;8.33;3.20;;;;;;;20.15;45.95;100406.94;5051824;28;20277;-61
2022/05/15 06:45:39;;;;;;;5.23;2.47;;;;;;;20.17;45.55;100407.63;5031896;28;20181;-61
2022/05/15 06:48:05;;;;;;;8.57;2.87;;;;;;;20.76;44.02;100403.13;5031770;28;20201;-61
2022/05/15 06:50:30;;;;;;;9.50;3.10;;;;;;;21.61;42.69;100399.56;5044123;28;20308;-61
2022/05/15 06:52:56;;;;;;;7.47;3.37;;;;;;;22.88;39.35;100400.19;5056567;28;20247;-61
2022/05/15 06:55:23;;;;;;;8.93;3.50;;;;;;;22.60;38.87;100413.47;5031979;28;20182;-60
2022/05/15 06:57:50;;;;;;;4.47;2.80;;;;;;;21.58;40.75;100408.53;5045707;28;20232;-60
2022/05/15 07:00:25;;;;;;;6.37;2.83;;;;;;;21.23;41.92;100402.22;5030010;28;20177;-60
2022/05/15 07:02:51;;;;;;;6.03;2.40;;;;;;;21.59;41.87;100409.34;5044133;28;20265;-60
2022/05/15 07:05:22;;;;;;;6.70;3.00;;;;;;;22.44;39.56;100408.13;5030721;28;20173;-60
2022/05/15 07:07:47;;;;;;;7.13;2.77;;;;;;;22.43;39.61;100402.06;5031111;28;20209;-60
2022/05/15 07:10:14;;;;;;;7.17;3.03;;;;;;;23.28;38.11;100397.91;5024123;28;20289;-60
2022/05/15 07:12:39;;;;;;;4.83;2.67;;;;;;;22.69;38.80;100403.88;5045945;28;20220;-61
2022/05/15 07:15:06;;;;;;;6.60;2.60;;;;;;;22.64;38.72;100396.47;5041519;28;20201;-61
2022/05/15 07:17:32;;;;;;;4.57;2.30;;;;;;;22.72;38.45;100398.28;5061380;28;20209;-60
2022/05/15 07:19:57;;;;;;;6.93;2.90;;;;;;;22.92;38.53;100403.31;5044720;28;20181;-60
2022/05/15 07:22:23;;;;;;;6.40;3.33;;;;;;;24.00;36.26;100406.09;5056840;28;20229;-60
2022/05/15 07:24:48;;;;;;;5.60;2.60;;;;;;;23.07;37.25;100411.41;5051524;28;20230;-60
2022/05/15 07:27:14;;;;;;;5.13;2.67;;;;;;;23.43;36.95;100406.81;5050548;28;20183;-60
2022/05/15 07:29:40;;;;;;;8.00;2.80;;;;;;;24.24;35.80;100414.94;5051263;28;20243;-60
2022/05/15 07:32:08;;;;;;;5.28;2.60;;;;;;;24.41;35.22;100415.75;5035976;28;20256;-61
2022/05/15 07:34:34;;;;;;;5.47;2.40;;;;;;;24.37;35.19;100411.78;5050384;28;20185;-60
2022/05/15 07:37:00;;;;;;;5.47;2.45;;;;;;;24.20;35.13;100410.16;5059349;28;20649;-61
2022/05/15 07:39:25;;;;;;;7.10;2.50;;;;;;;25.20;34.39;100408.94;5031456;28;20174;-62
2022/05/15 07:41:51;;;;;;;6.13;2.67;;;;;;;25.56;32.86;100405.81;5049768;28;20287;-61
2022/05/15 07:44:17;;;;;;;7.40;2.28;;;;;;;26.69;31.41;100408.63;5034666;28;20277;-61
2022/05/15 07:46:42;;;;;;;5.38;1.98;;;;;;;26.22;31.60;100410.59;5030984;28;20232;-61
2022/05/15 07:49:09;;;;;;;4.28;1.88;;;;;;;27.44;29.45;100401.47;5046717;28;20228;-61
2022/05/15 07:51:35;;;;;;;6.45;2.10;;;;;;;28.05;28.45;100404.69;5052147;28;20675;-62
2022/05/15 07:54:01;;;;;;;7.72;2.50;;;;;;;28.49;28.79;100407.03;5038696;28;20245;-61
2022/05/15 07:56:26;;;;;;;6.15;2.45;;;;;;;27.14;30.10;100398.03;5045845;28;20277;-61
2022/05/15 07:58:52;;;;;;;4.53;2.30;;;;;;;28.43;28.79;100402.50;5031550;28;20170;-61
2022/05/15 08:01:17;;;;;;;10.13;2.78;;;;;;;28.44;28.86;100405.97;5041164;28;20699;-61
2022/05/15 08:03:43;;;;;;;5.78;2.45;;;;;;;26.38;31.44;100404.34;5036083;28;20582;-60
2022/05/15 08:08:54;;;;;;;6.80;2.38;;;;;;;28.59;28.63;100398.75;5032910;28;20200;-60
2022/05/15 08:11:19;;;;;;;4.68;2.28;;;;;;;28.66;28.10;100399.56;5045710;28;20653;-63
2022/05/15 08:13:44;;;;;;;5.45;2.58;;;;;;;28.22;28.53;100395.47;5056120;28;20559;-62
2022/05/15 08:16:10;;;;;;;3.35;2.28;;;;;;;25.45;32.50;100396.47;5054399;28;20221;-60
2022/05/15 08:24:04;;;;;;;3.30;1.98;;;;;;;26.96;29.96;100398.47;5058221;28;20180;-60
2022/05/15 08:26:30;;;;;;;5.82;2.58;;;;;;;26.22;31.19;100392.97;5053058;28;20182;-60
2022/05/15 08:28:57;;;;;;;4.78;2.13;;;;;;;26.29;31.44;100400.97;5054830;28;20197;-61
2022/05/15 08:31:24;;;;;;;7.05;2.78;;;;;;;26.17;30.58;100400.59;5046290;28;20221;-60
2022/05/15 08:33:51;;;;;;;5.45;2.35;;;;;;;26.16;31.21;100388.41;5052647;28;20185;-62
2022/05/15 08:36:16;;;;;;;6.35;2.65;;;;;;;26.42;30.85;100392.44;5059373;28;20177;-60
2022/05/15 08:38:43;;;;;;;7.35;2.38;;;;;;;26.09;31.71;100388.28;5054434;28;20200;-60
2022/05/15 08:41:25;;;;;;;4.47;2.38;;;;;;;25.91;31.34;100387.75;5042634;28;20233;-59
2022/05/15 08:44:07;;;;;;;5.38;2.85;;;;;;;26.48;31.11;100398.81;5052954;28;20264;-60
2022/05/15 08:47:19;;;;;;;4.32;2.30;;;;;;;25.93;32.18;100391.03;5053712;28;20204;-60
2022/05/15 08:49:51;;;;;;;6.97;2.20;;;;;;;24.85;34.30;100400.56;5054187;28;20189;-60
2022/05/15 08:52:24;;;;;;;5.20;2.42;;;;;;;25.28;33.13;100391.28;5059280;28;20220;-60
2022/05/15 08:54:56;;;;;;;7.57;2.75;;;;;;;24.71;34.26;100388.91;5052620;28;20185;-61
2022/05/15 08:57:35;;;;;;;4.15;2.50;;;;;;;25.28;33.68;100390.50;5052194;28;20184;-59
2022/05/15 09:00:05;;;;;;;6.32;2.60;;;;;;;25.48;33.79;100385.63;5052796;28;20188;-73
2022/05/15 09:02:30;;;;;;;6.70;2.42;;;;;;;26.73;31.19;100397.53;5034297;28;20217;-73
2022/05/15 09:04:56;;;;;;;6.40;2.60;;;;;;;26.49;31.83;100389.91;5034354;28;20710;-70
2022/05/15 09:08:09;;;;;;;4.95;2.70;;;;;;;26.45;31.50;100394.72;5033411;28;20950;-66
2022/05/15 09:10:47;;;;;;;3.38;2.08;;;;;;;27.00;30.71;100387.34;5025044;28;20224;-67
2022/05/15 09:13:29;;;;;;;6.22;2.85;;;;;;;27.51;30.25;100390.94;5059686;28;20695;-68
2022/05/15 09:15:59;;;;;;;4.15;2.25;;;;;;;27.19;30.64;100393.84;5033617;28;20693;-68
2022/05/15 09:18:27;;;;;;;6.32;2.00;;;;;;;27.60;29.76;100394.28;5050184;28;20193;-67
2022/05/15 09:20:53;;;;;;;5.75;2.95;;;;;;;27.61;30.00;100394.13;5055957;28;20758;-67
2022/05/15 09:23:20;;;;;;;5.90;2.55;;;;;;;28.54;28.79;100390.53;5072400;28;20297;-67
2022/05/15 09:25:55;;;;;;;5.78;2.60;;;;;;;28.10;29.37;100389.06;5053505;28;20184;-67
2022/05/15 09:28:21;;;;;;;9.95;2.97;;;;;;;28.69;28.69;100398.41;5043758;28;20201;-66
2022/05/15 09:30:49;;;;;;;6.97;2.83;;;;;;;29.98;26.96;100387.97;5041422;28;20742;-68
2022/05/15 09:33:35;;;;;;;6.30;2.20;;;;;;;30.93;25.76;100388.56;5066287;28;20625;-68
2022/05/15 09:36:26;;;;;;;4.35;2.03;;;;;;;30.21;25.87;100378.75;5035587;28;20549;-66
2022/05/15 09:39:16;;;;;;;4.75;2.45;;;;;;;28.70;28.13;100392.09;5033118;28;20213;-71
2022/05/15 09:44:35;;;;;;;6.45;2.50;;;;;;;28.06;29.42;100375.41;5034099;28;20196;-65
2022/05/15 09:47:18;;;;;;;10.18;2.80;;;;;;;29.35;27.35;100383.78;5031610;28;20209;-64
2022/05/15 09:49:45;;;;;;;4.07;2.40;;;;;;;30.75;25.85;100377.59;5032684;28;20185;-64
2022/05/15 09:52:23;;;;;;;4.90;2.40;;;;;;;28.92;27.81;100374.25;5054887;28;20305;-66
2022/05/15 09:54:49;;;;;;;4.60;2.67;;;;;;;28.82;28.25;100369.34;5033154;28;20180;-73
2022/05/15 09:57:25;;;;;;;5.35;2.97;;;;;;;28.87;28.62;100360.81;5031825;28;20194;-67
2022/05/15 10:00:00;;;;;;;5.95;2.63;;;;;;;29.66;26.81;100355.91;5032330;28;20629;-68
2022/05/15 10:02:46;;;;;;;8.02;5.20;;;;;;;30.77;26.58;100356.13;5054353;28;20304;-66
2022/05/15 10:05:17;;;;;;;5.80;2.38;;;;;;;32.77;23.54;100355.56;5032978;28;20261;-66
2022/05/15 10:07:51;;;;;;;6.70;3.75;;;;;;;30.07;26.43;100359.38;5032460;28;20194;-68
2022/05/15 10:11:04;;;;;;;6.43;3.00;;;;;;;30.03;26.09;100358.16;5026462;28;20186;-72
2022/05/15 10:13:54;;;;;;;6.00;2.47;;;;;;;29.92;26.53;100354.31;5027699;28;20198;-70
2022/05/15 10:16:22;;;;;;;5.22;2.28;;;;;;;29.71;27.35;100350.00;5031856;28;20232;-68
2022/05/15 10:18:56;;;;;;;9.07;2.53;;;;;;;30.21;26.47;100346.91;5037946;28;20268;-69
2022/05/15 10:21:28;;;;;;;4.70;2.42;;;;;;;29.76;26.96;100350.19;5056865;28;20692;-68
2022/05/15 10:23:57;;;;;;;5.50;2.38;;;;;;;29.00;27.76;100346.81;5036650;28;20181;-66
2022/05/15 10:26:27;;;;;;;6.63;2.42;;;;;;;29.20;27.61;100343.38;5031564;28;20194;-65
2022/05/15 10:29:03;;;;;;;4.78;2.33;;;;;;;28.96;27.02;100349.03;5032900;28;20210;-68
2022/05/15 10:31:53;;;;;;;6.78;2.78;;;;;;;28.91;27.58;100346.16;5044077;28;20634;-67
2022/05/15 10:34:23;;;;;;;5.82;2.47;;;;;;;29.56;26.20;100328.97;5034731;28;20536;-68
2022/05/15 10:37:16;;;;;;;6.03;2.22;;;;;;;31.65;23.70;100325.34;5033215;28;20546;-67
2022/05/15 10:40:05;;;;;;;4.60;2.20;;;;;;;29.69;26.44;100330.81;5031662;28;20265;-69
2022/05/15 10:42:58;;;;;;;4.10;2.22;;;;;;;27.41;29.69;100322.59;5020890;28;20548;-65
2022/05/15 10:45:35;;;;;;;4.60;2.55;;;;;;;25.73;32.10;100315.13;5030748;28;20273;-64
2022/05/15 10:48:21;;;;;;;5.82;2.58;;;;;;;25.66;32.28;100314.19;5029930;28;20315;-62
2022/05/15 10:51:13;;;;;;;7.13;2.67;;;;;;;25.07;33.72;100304.25;5021924;28;20652;-62
2022/05/15 10:59:50;;;;;;;3.23;2.30;;;;;;;24.26;33.73;100297.34;5011540;28;20262;-61
2022/05/15 11:02:52;;;;;;;4.20;2.13;;;;;;;24.49;34.28;100292.13;5026826;28;20319;-62
2022/05/15 11:05:27;;;;;;;4.83;1.90;;;;;;;24.36;35.00;100283.16;5031647;28;20579;-60
2022/05/15 11:08:10;;;;;;;5.33;2.33;;;;;;;24.27;35.29;100285.00;5030695;28;20228;-63
2022/05/15 11:10:42;;;;;;;7.80;2.27;;;;;;;24.24;34.85;100280.09;5025561;28;20261;-61
2022/05/15 11:13:26;;;;;;;9.10;2.33;;;;;;;24.44;34.32;100273.44;5041837;28;20653;-62
2022/05/15 11:15:51;;;;;;;4.40;2.10;;;;;;;24.43;34.63;100269.16;5026974;28;20237;-62
2022/05/15 11:18:38;;;;;;;4.83;2.47;;;;;;;24.43;34.35;100266.53;5039972;28;20190;-63
2022/05/15 11:21:42;;;;;;;2.90;2.20;;;;;;;24.34;34.21;100259.69;5029222;28;20240;-62
2022/05/15 11:24:15;;;;;;;3.27;2.00;;;;;;;24.48;34.56;100253.69;5034286;28;20202;-63
2022/05/15 11:26:48;;;;;;;6.70;2.20;;;;;;;24.81;33.59;100253.56;5034396;28;20186;-63
2022/05/15 11:29:18;;;;;;;4.47;2.43;;;;;;;24.78;32.59;100264.44;5035608;28;20280;-63
2022/05/15 11:31:50;;;;;;;3.47;1.77;;;;;;;24.61;33.31;100258.41;5026689;28;20232;-62
2022/05/15 11:34:15;;;;;;;5.83;2.43;;;;;;;24.36;32.88;100251.63;5048052;28;20652;-61
2022/05/15 11:36:47;;;;;;;4.23;2.00;;;;;;;24.74;33.00;100246.53;5031907;28;20189;-60
2022/05/15 11:39:15;;;;;;;2.90;1.97;;;;;;;25.02;31.25;100251.28;5045907;28;20248;-60
2022/05/15 11:41:40;;;;;;;4.13;1.90;;;;;;;24.90;31.18;100243.81;5046956;28;20566;-61
2022/05/15 11:44:18;;;;;;;6.50;2.70;;;;;;;25.01;31.48;100250.50;5036753;28;20311;-62
2022/05/15 11:46:46;;;;;;;4.53;2.30;;;;;;;25.55;32.49;100246.16;5030646;28;20547;-62
2022/05/15 11:49:27;;;;;;;3.13;1.90;;;;;;;25.44;30.03;100248.22;5031275;28;20209;-62
2022/05/15 11:52:05;;;;;;;4.27;2.07;;;;;;;25.17;31.53;100241.66;5049861;28;20710;-61
2022/05/15 11:54:33;;;;;;;3.57;2.33;;;;;;;25.05;31.25;100241.25;5030853;28;20190;-60
2022/05/15 11:57:01;;;;;;;3.37;1.93;;;;;;;24.90;31.40;100227.22;5030269;28;20180;-60